createdAt,value
2023-04-16T00:01:53.704Z,-11084.25
2023-04-16T00:04:20.376Z,-11084.25
2023-04-16T00:06:47.045Z,-11084.25
2023-04-16T00:09:13.569Z,-11084.25
2023-04-16T00:11:40.107Z,-11084.25
2023-04-16T00:14:06.573Z,-11084.25
2023-04-16T00:16:33.473Z,-11084.25
2023-04-16T00:19:00.044Z,-11084.25
2023-04-16T00:21:26.657Z,-11084.25
2023-04-16T00:23:53.550Z,-11084.25
2023-04-16T00:26:20.020Z,-11084.25
2023-04-16T00:28:46.430Z,-11339.66
2023-04-16T00:31:13.075Z,-11339.66
2023-04-16T00:33:39.690Z,-11339.66
2023-04-16T00:36:06.920Z,-11339.66
2023-04-16T00:38:33.480Z,-11339.66
2023-04-16T00:40:59.980Z,-11339.66
2023-04-16T00:43:27.249Z,-11339.66
2023-04-16T00:45:56.698Z,-11595.00
2023-04-16T00:48:23.666Z,-11595.00
2023-04-16T00:50:51.343Z,-11850.38
2023-04-16T00:53:17.879Z,-11850.38
2023-04-16T00:55:44.741Z,-11850.38
2023-04-16T00:58:11.492Z,-11850.38
2023-04-16T01:00:38.041Z,-12105.69
2023-04-16T01:03:05.469Z,-12105.69
2023-04-16T01:05:32.124Z,-12105.69
2023-04-16T01:08:02.489Z,-12105.69
2023-04-16T01:10:29.112Z,-12105.69
2023-04-16T01:12:55.651Z,-12105.69
2023-04-16T01:15:22.366Z,-12105.69
2023-04-16T01:17:48.925Z,-12105.69
2023-04-16T01:20:15.643Z,-12105.69
2023-04-16T01:22:42.833Z,-12105.69
2023-04-16T01:25:13.504Z,-11850.38
2023-04-16T01:27:40.039Z,-12105.69
2023-04-16T01:30:07.320Z,-11850.38
2023-04-16T01:32:33.912Z,-11850.38
2023-04-16T01:35:00.426Z,-11850.38
2023-04-16T01:37:26.979Z,-11850.38
2023-04-16T01:39:53.566Z,-11850.38
2023-04-16T01:42:20.122Z,-11850.38
2023-04-16T01:44:47.509Z,-11850.38
2023-04-16T01:47:14.341Z,-11850.38
2023-04-16T01:49:41.136Z,-11850.38
2023-04-16T01:52:08.463Z,-11850.38
2023-04-16T01:54:36.014Z,-11850.38
2023-04-16T01:57:03.188Z,-11850.38
2023-04-16T01:59:29.725Z,-11850.38
2023-04-16T02:01:58.502Z,-11595.00
2023-04-16T02:04:24.997Z,-11595.00
2023-04-16T02:06:52.500Z,-11595.00
2023-04-16T02:09:19.868Z,-11339.66
2023-04-16T02:11:47.408Z,-11339.66
2023-04-16T02:14:13.838Z,-11339.66
2023-04-16T02:16:40.406Z,-11339.66
2023-04-16T02:19:07.232Z,-11339.66
2023-04-16T02:21:33.888Z,-11339.66
2023-04-16T02:24:00.498Z,-11339.66
2023-04-16T02:26:27.054Z,-11084.25
2023-04-16T02:28:53.645Z,-11339.66
2023-04-16T02:31:22.023Z,-11084.25
2023-04-16T02:33:48.859Z,-10828.84
2023-04-16T02:36:15.596Z,-10828.84
2023-04-16T02:38:42.140Z,-10828.84
2023-04-16T02:41:08.628Z,-10828.84
2023-04-16T02:43:35.105Z,-10828.84
2023-04-16T02:46:01.779Z,-10573.44
2023-04-16T02:48:28.369Z,-10573.44
2023-04-16T02:50:54.925Z,-10573.44
2023-04-16T02:53:21.499Z,-10573.44
2023-04-16T02:55:55.327Z,-10573.44
2023-04-16T02:58:24.261Z,-10573.44
2023-04-16T03:00:51.894Z,-10828.84
2023-04-16T03:03:18.544Z,-10828.84
2023-04-16T03:05:45.611Z,-10828.84
2023-04-16T03:08:12.159Z,-10828.84
2023-04-16T03:10:38.886Z,-10828.84
2023-04-16T03:13:06.587Z,-11084.25
2023-04-16T03:15:33.600Z,-11084.25
2023-04-16T03:18:00.473Z,-11084.25
2023-04-16T03:20:27.160Z,-11084.25
2023-04-16T03:22:53.727Z,-11084.25
2023-04-16T03:25:20.880Z,-10828.84
2023-04-16T03:27:47.425Z,-10573.44
2023-04-16T03:30:14.879Z,-10318.00
2023-04-16T03:32:41.535Z,-10062.56
2023-04-16T03:35:09.347Z,-9807.06
2023-04-16T03:37:36.070Z,-9551.59
2023-04-16T03:40:02.538Z,-9551.59
2023-04-16T03:42:29.025Z,-9551.59
2023-04-16T03:44:55.576Z,-9551.59
2023-04-16T03:47:22.092Z,-9551.59
2023-04-16T03:49:48.642Z,-9551.59
2023-04-16T03:52:15.122Z,-9551.59
2023-04-16T03:54:41.635Z,-9551.59
2023-04-16T03:57:08.514Z,-9807.06
2023-04-16T03:59:35.072Z,-9807.06
2023-04-16T04:02:02.661Z,-9551.59
2023-04-16T04:04:29.346Z,-9551.59
2023-04-16T04:06:56.924Z,-9551.59
2023-04-16T04:09:23.270Z,-9807.06
2023-04-16T04:11:50.640Z,-9807.06
2023-04-16T04:14:17.266Z,-9807.06
2023-04-16T04:16:43.817Z,-9807.06
2023-04-16T04:19:10.749Z,-9551.59
2023-04-16T04:21:37.440Z,-9551.59
2023-04-16T04:24:04.031Z,-9296.09
2023-04-16T04:26:30.635Z,-9551.59
2023-04-16T04:28:57.224Z,-9551.59
2023-04-16T04:31:23.851Z,-9551.59
2023-04-16T04:33:50.513Z,-9296.09
2023-04-16T04:36:17.344Z,-9040.56
2023-04-16T04:38:43.799Z,-8785.03
2023-04-16T04:41:10.251Z,-8785.03
2023-04-16T04:43:36.739Z,-8785.03
2023-04-16T04:46:03.352Z,-9296.09
2023-04-16T04:48:29.945Z,-9296.09
2023-04-16T04:51:00.795Z,-9296.09
2023-04-16T04:53:28.038Z,-9296.09
2023-04-16T04:55:57.532Z,-9296.09
2023-04-16T04:58:32.943Z,-9296.09
2023-04-16T05:00:59.576Z,-9296.09
2023-04-16T05:03:26.369Z,-9296.09
2023-04-16T05:05:53.909Z,-9296.09
2023-04-16T05:08:20.629Z,-9551.59
2023-04-16T05:10:53.328Z,-9551.59
2023-04-16T05:13:21.834Z,-9551.59
2023-04-16T05:15:48.316Z,-9551.59
2023-04-16T05:18:17.834Z,-9807.06
2023-04-16T05:20:49.562Z,-9551.59
2023-04-16T05:23:16.223Z,-9807.06
2023-04-16T05:25:43.046Z,-9807.06
2023-04-16T05:28:10.367Z,-9551.59
2023-04-16T05:30:38.946Z,-9296.09
2023-04-16T05:33:05.827Z,-9296.09
2023-04-16T05:35:32.291Z,-9296.09
2023-04-16T05:37:58.763Z,-9296.09
2023-04-16T05:40:25.309Z,-9296.09
2023-04-16T05:43:02.261Z,-9296.09
2023-04-16T05:45:28.681Z,-9296.09
2023-04-16T05:48:00.860Z,-9296.09
2023-04-16T05:50:27.349Z,-9296.09
2023-04-16T05:52:53.799Z,-9296.09
2023-04-16T05:55:20.347Z,-9040.56
2023-04-16T05:57:47.785Z,-8785.03
2023-04-16T06:00:14.414Z,-8529.47
2023-04-16T06:02:41.179Z,-8273.91
2023-04-16T06:05:08.249Z,-7762.72
2023-04-16T06:07:34.728Z,-7507.09
2023-04-16T06:10:01.201Z,-7762.72
2023-04-16T06:12:27.664Z,-7507.09
2023-04-16T06:14:54.096Z,-7507.09
2023-04-16T06:17:21.293Z,-6995.78
2023-04-16T06:19:48.200Z,-6740.13
2023-04-16T06:22:15.042Z,-5973.00
2023-04-16T06:24:49.139Z,-5461.50
2023-04-16T06:27:15.730Z,-4949.91
2023-04-16T06:29:42.145Z,-4438.28
2023-04-16T06:32:09.514Z,-4182.44
2023-04-16T06:34:38.551Z,-4438.28
2023-04-16T06:37:05.019Z,-3670.69
2023-04-16T06:39:32.293Z,-3414.81
2023-04-16T06:41:59.007Z,-3670.69
2023-04-16T06:44:25.509Z,-3670.69
2023-04-16T06:46:52.453Z,-3670.69
2023-04-16T06:49:19.317Z,-3670.69
2023-04-16T06:51:46.268Z,-2902.97
2023-04-16T06:54:12.678Z,-1623.06
2023-04-16T06:56:39.498Z,-1367.03
2023-04-16T06:59:07.848Z,-86.59
2023-04-16T07:01:34.680Z,2219.22
2023-04-16T07:04:04.354Z,2988.13
2023-04-16T07:06:32.011Z,2731.81
2023-04-16T07:08:58.474Z,4013.56
2023-04-16T07:11:26.005Z,5039.31
2023-04-16T07:13:53.840Z,5039.31
2023-04-16T07:16:21.480Z,5039.31
2023-04-16T07:18:47.962Z,4269.97
2023-04-16T07:21:16.425Z,3244.47
2023-04-16T07:23:42.860Z,4013.56
2023-04-16T07:26:11.692Z,4013.56
2023-04-16T07:28:38.440Z,4526.41
2023-04-16T07:31:05.119Z,4526.41
2023-04-16T07:33:31.582Z,5039.31
2023-04-16T07:35:58.031Z,5552.28
2023-04-16T07:38:30.434Z,5808.78
2023-04-16T07:40:58.306Z,6065.31
2023-04-16T07:43:24.761Z,6834.97
2023-04-16T07:45:51.231Z,6578.41
2023-04-16T07:48:17.652Z,6578.41
2023-04-16T07:50:44.415Z,5808.78
2023-04-16T07:53:10.950Z,7091.56
2023-04-16T07:55:39.486Z,7091.56
2023-04-16T07:58:07.885Z,6578.41
2023-04-16T08:00:34.410Z,6578.41
2023-04-16T08:03:05.271Z,4782.84
2023-04-16T08:05:31.857Z,5295.78
2023-04-16T08:07:58.624Z,6065.31
2023-04-16T08:10:25.386Z,5552.28
2023-04-16T08:12:54.245Z,5039.31
2023-04-16T08:15:21.106Z,5039.31
2023-04-16T08:17:49.913Z,5039.31
2023-04-16T08:20:19.540Z,6834.97
2023-04-16T08:22:51.293Z,6834.97
2023-04-16T08:25:17.908Z,6834.97
2023-04-16T08:27:44.479Z,7091.56
2023-04-16T08:30:11.066Z,8118.13
2023-04-16T08:32:38.157Z,7604.81
2023-04-16T08:35:07.904Z,9144.94
2023-04-16T08:37:34.378Z,11456.28
2023-04-16T08:40:04.631Z,10685.69
2023-04-16T08:42:33.266Z,12740.94
2023-04-16T08:45:16.683Z,14797.31
2023-04-16T08:47:49.294Z,13254.94
2023-04-16T08:50:17.680Z,13254.94
2023-04-16T08:52:57.962Z,14540.19
2023-04-16T08:55:43.609Z,15825.88
2023-04-16T08:58:30.588Z,17883.88
2023-04-16T09:00:57.316Z,18398.53
2023-04-16T09:03:24.014Z,18141.22
2023-04-16T09:05:51.645Z,19428.09
2023-04-16T09:08:18.505Z,20200.41
2023-04-16T09:10:46.076Z,19428.09
2023-04-16T09:13:13.541Z,20715.41
2023-04-16T09:15:41.282Z,25643.28
2023-04-16T09:18:08.708Z,29329.16
2023-04-16T09:20:35.430Z,31977.34
2023-04-16T09:23:01.972Z,32243.66
2023-04-16T09:25:32.902Z,32364.72
2023-04-16T09:27:59.565Z,32790.50
2023-04-16T09:30:28.881Z,32054.00
2023-04-16T09:33:22.071Z,32727.94
2023-04-16T09:35:50.413Z,32760.22
2023-04-16T09:38:17.867Z,32713.81
2023-04-16T09:40:44.409Z,32167.00
2023-04-16T09:43:14.611Z,31904.69
2023-04-16T09:45:54.724Z,32594.75
2023-04-16T09:48:34.281Z,32705.75
2023-04-16T09:51:07.643Z,32917.63
2023-04-16T09:53:36.448Z,32974.13
2023-04-16T09:56:15.517Z,33012.47
2023-04-16T09:58:42.249Z,33155.78
2023-04-16T10:01:11.082Z,33175.94
2023-04-16T10:03:40.339Z,33155.78
2023-04-16T10:06:08.173Z,33103.28
2023-04-16T10:08:36.837Z,33127.50
2023-04-16T10:11:04.891Z,33113.38
2023-04-16T10:13:32.329Z,33155.78
2023-04-16T10:16:00.672Z,33155.78
2023-04-16T10:18:29.390Z,32869.19
2023-04-16T10:20:58.039Z,32974.13
2023-04-16T10:23:34.352Z,33044.78
2023-04-16T10:26:02.229Z,33050.81
2023-04-16T10:28:35.331Z,32756.19
2023-04-16T10:31:04.496Z,32677.50
2023-04-16T10:33:40.651Z,32691.63
2023-04-16T10:36:13.348Z,32374.81
2023-04-16T10:38:41.704Z,32223.47
2023-04-16T10:41:12.153Z,32372.78
2023-04-16T10:43:44.127Z,32049.97
2023-04-16T10:46:27.620Z,32150.84
2023-04-16T10:48:56.464Z,32425.25
2023-04-16T10:51:24.249Z,31791.72
2023-04-16T10:53:50.969Z,30839.59
2023-04-16T10:56:26.718Z,31031.22
2023-04-16T10:58:58.094Z,31037.25
2023-04-16T11:01:35.873Z,31085.69
2023-04-16T11:04:25.177Z,30613.69
2023-04-16T11:07:07.088Z,30323.28
2023-04-16T11:09:53.480Z,30075.25
2023-04-16T11:12:34.777Z,29766.72
2023-04-16T11:15:06.317Z,29706.22
2023-04-16T11:17:45.286Z,29095.31
2023-04-16T11:20:23.243Z,29016.69
2023-04-16T11:22:58.590Z,27777.00
2023-04-16T11:25:34.284Z,27700.41
2023-04-16T11:28:03.190Z,28460.28
2023-04-16T11:30:39.316Z,27813.28
2023-04-16T11:33:11.263Z,27712.50
2023-04-16T11:35:39.603Z,27347.75
2023-04-16T11:38:07.158Z,26839.97
2023-04-16T11:40:34.241Z,26569.97
2023-04-16T11:43:14.147Z,26471.25
2023-04-16T11:45:55.864Z,26124.72
2023-04-16T11:48:23.308Z,26054.22
2023-04-16T11:50:59.177Z,26001.84
2023-04-16T11:53:26.989Z,26320.16
2023-04-16T11:55:54.568Z,26408.78
2023-04-16T11:58:22.355Z,27162.34
2023-04-16T12:00:53.366Z,29065.06
2023-04-16T12:03:38.142Z,29230.38
2023-04-16T12:06:09.631Z,29548.94
2023-04-16T12:08:37.276Z,29746.53
2023-04-16T12:11:04.533Z,29778.81
2023-04-16T12:13:31.053Z,29577.16
2023-04-16T12:15:59.809Z,29536.84
2023-04-16T12:18:29.342Z,30218.41
2023-04-16T12:20:56.042Z,31154.25
2023-04-16T12:23:30.538Z,32405.09
2023-04-16T12:26:02.243Z,33474.66
2023-04-16T12:28:30.952Z,37351.78
2023-04-16T12:30:57.767Z,39429.22
2023-04-16T12:33:24.375Z,40927.34
2023-04-16T12:35:51.098Z,45575.00
2023-04-16T12:38:17.453Z,43421.47
2023-04-16T12:40:44.160Z,45251.09
2023-04-16T12:43:10.646Z,52898.53
2023-04-16T12:45:38.130Z,49054.72
2023-04-16T12:48:04.831Z,59280.69
2023-04-16T12:50:31.443Z,50372.06
2023-04-16T12:52:58.206Z,46079.16
2023-04-16T12:55:25.565Z,44846.25
2023-04-16T12:57:55.032Z,45467.72
2023-04-16T13:00:22.013Z,44435.34
2023-04-16T13:02:48.719Z,44530.47
2023-04-16T13:05:16.626Z,47798.59
2023-04-16T13:07:43.240Z,47980.91
2023-04-16T13:10:10.394Z,45894.91
2023-04-16T13:12:36.900Z,44133.78
2023-04-16T13:15:03.576Z,42231.88
2023-04-16T13:17:30.063Z,41544.16
2023-04-16T13:19:56.473Z,41200.34
2023-04-16T13:22:22.940Z,40549.22
2023-04-16T13:24:49.777Z,39716.25
2023-04-16T13:27:16.889Z,39299.84
2023-04-16T13:29:43.274Z,38164.03
2023-04-16T13:32:13.968Z,37707.38
2023-04-16T13:34:40.764Z,36782.06
2023-04-16T13:37:07.218Z,36990.16
2023-04-16T13:39:33.794Z,37788.19
2023-04-16T13:42:00.635Z,36519.47
2023-04-16T13:44:27.364Z,36155.91
2023-04-16T13:46:53.888Z,36666.94
2023-04-16T13:49:20.381Z,36616.44
2023-04-16T13:51:46.947Z,36628.56
2023-04-16T13:54:13.448Z,35844.88
2023-04-16T13:56:39.963Z,35562.16
2023-04-16T13:59:06.450Z,34956.38
2023-04-16T14:01:33.099Z,33926.78
2023-04-16T14:04:08.702Z,32284.00
2023-04-16T14:06:35.512Z,28966.28
2023-04-16T14:09:02.025Z,27823.38
2023-04-16T14:11:28.596Z,28472.38
2023-04-16T14:13:55.541Z,28415.94
2023-04-16T14:16:22.142Z,28024.91
2023-04-16T14:18:48.815Z,27678.25
2023-04-16T14:21:15.675Z,27754.84
2023-04-16T14:23:42.219Z,27138.19
2023-04-16T14:26:08.692Z,26860.09
2023-04-16T14:28:35.763Z,27706.47
2023-04-16T14:31:02.346Z,26533.69
2023-04-16T14:33:28.875Z,26586.09
2023-04-16T14:35:55.458Z,25564.72
2023-04-16T14:38:21.845Z,24193.25
2023-04-16T14:40:48.594Z,23263.09
2023-04-16T14:43:15.448Z,23335.59
2023-04-16T14:45:41.898Z,24293.94
2023-04-16T14:48:08.588Z,22457.97
2023-04-16T14:50:38.834Z,20457.91
2023-04-16T14:53:05.633Z,18655.91
2023-04-16T14:55:32.533Z,17112.00
2023-04-16T14:57:59.698Z,18141.22
2023-04-16T15:00:26.478Z,16083.06
2023-04-16T15:02:54.635Z,15311.56
2023-04-16T15:05:21.692Z,13768.97
2023-04-16T15:07:48.127Z,13511.94
2023-04-16T15:10:14.641Z,11199.38
2023-04-16T15:12:41.127Z,10172.03
2023-04-16T15:15:08.630Z,9915.22
2023-04-16T15:17:35.483Z,7091.56
2023-04-16T15:20:02.088Z,5295.78
2023-04-16T15:22:28.669Z,4782.84
2023-04-16T15:24:55.188Z,6065.31
2023-04-16T15:27:21.629Z,6321.84
2023-04-16T15:29:49.324Z,8118.13
2023-04-16T15:32:15.826Z,9401.69
2023-04-16T15:34:42.301Z,10172.03
2023-04-16T15:37:09.654Z,11970.09
2023-04-16T15:39:36.038Z,12483.97
2023-04-16T15:42:06.991Z,14283.09
2023-04-16T15:44:33.984Z,17883.88
2023-04-16T15:47:00.527Z,17369.28
2023-04-16T15:49:27.016Z,18398.53
2023-04-16T15:51:53.559Z,15311.56
2023-04-16T15:54:20.010Z,16340.28
2023-04-16T15:56:46.855Z,13511.94
2023-04-16T15:59:13.599Z,13768.97
2023-04-16T16:01:40.214Z,10428.84
2023-04-16T16:04:07.969Z,10942.53
2023-04-16T16:06:34.911Z,10428.84
2023-04-16T16:09:01.762Z,9401.69
2023-04-16T16:11:28.387Z,6321.84
2023-04-16T16:13:55.076Z,8631.50
2023-04-16T16:16:21.882Z,11713.16
2023-04-16T16:18:48.648Z,13511.94
2023-04-16T16:21:15.099Z,14026.03
2023-04-16T16:23:41.479Z,12483.97
2023-04-16T16:26:08.054Z,8374.81
2023-04-16T16:28:37.627Z,7348.19
2023-04-16T16:31:05.924Z,5552.28
2023-04-16T16:33:33.059Z,5552.28
2023-04-16T16:35:59.516Z,4526.41
2023-04-16T16:38:26.190Z,3757.19
2023-04-16T16:40:52.699Z,3500.81
2023-04-16T16:43:19.300Z,3757.19
2023-04-16T16:45:46.472Z,2219.22
2023-04-16T16:48:12.917Z,2219.22
2023-04-16T16:50:39.494Z,2219.22
2023-04-16T16:53:06.205Z,4013.56
2023-04-16T16:55:32.621Z,5808.78
2023-04-16T16:57:59.069Z,6321.84
2023-04-16T17:00:25.562Z,4782.84
2023-04-16T17:02:52.438Z,5552.28
2023-04-16T17:05:19.272Z,6578.41
2023-04-16T17:07:45.843Z,3500.81
2023-04-16T17:10:15.810Z,3500.81
2023-04-16T17:12:42.261Z,9401.69
2023-04-16T17:15:09.332Z,8374.81
2023-04-16T17:17:35.984Z,6321.84
2023-04-16T17:20:08.682Z,3244.47
2023-04-16T17:22:35.333Z,3500.81
2023-04-16T17:25:01.872Z,2988.13
2023-04-16T17:27:29.389Z,4269.97
2023-04-16T17:29:59.983Z,7348.19
2023-04-16T17:32:27.063Z,3244.47
2023-04-16T17:34:56.616Z,1194.22
2023-04-16T17:37:23.476Z,169.53
2023-04-16T17:39:51.011Z,-598.81
2023-04-16T17:42:17.739Z,-598.81
2023-04-16T17:44:44.422Z,-342.72
2023-04-16T17:47:10.871Z,681.84
2023-04-16T17:49:37.321Z,-86.59
2023-04-16T17:52:04.002Z,-854.91
2023-04-16T17:54:30.523Z,-1110.97
2023-04-16T17:56:57.576Z,-2902.97
2023-04-16T17:59:24.071Z,-3158.88
2023-04-16T18:01:50.675Z,-2902.97
2023-04-16T18:04:17.995Z,-2902.97
2023-04-16T18:06:44.799Z,-2647.00
2023-04-16T18:09:12.002Z,-3158.88
2023-04-16T18:11:38.560Z,-3670.69
2023-04-16T18:14:05.304Z,-3670.69
2023-04-16T18:16:32.204Z,-3158.88
2023-04-16T18:18:59.069Z,-3158.88
2023-04-16T18:21:25.944Z,-3158.88
2023-04-16T18:23:52.446Z,-3414.81
2023-04-16T18:26:21.116Z,-3670.69
2023-04-16T18:28:49.276Z,-3414.81
2023-04-16T18:31:15.953Z,-2902.97
2023-04-16T18:33:54.061Z,-2902.97
2023-04-16T18:36:23.665Z,-2902.97
2023-04-16T18:39:01.013Z,-3158.88
2023-04-16T18:41:28.702Z,-3670.69
2023-04-16T18:43:55.337Z,-3414.81
2023-04-16T18:46:21.888Z,-2902.97
2023-04-16T18:48:48.355Z,-2902.97
2023-04-16T18:51:16.293Z,-2902.97
2023-04-16T18:53:44.294Z,-3158.88
2023-04-16T18:56:11.563Z,-2902.97
2023-04-16T18:58:38.160Z,-3158.88
2023-04-16T19:01:05.257Z,-3414.81
2023-04-16T19:03:32.297Z,-3414.81
2023-04-16T19:05:58.971Z,-3670.69
2023-04-16T19:08:25.411Z,-3926.56
2023-04-16T19:10:52.077Z,-3926.56
2023-04-16T19:13:18.525Z,-3926.56
2023-04-16T19:15:45.338Z,-4182.44
2023-04-16T19:18:11.856Z,-4438.28
2023-04-16T19:20:39.445Z,-4694.09
2023-04-16T19:23:08.299Z,-4694.09
2023-04-16T19:25:36.427Z,-4949.91
2023-04-16T19:28:03.761Z,-4949.91
2023-04-16T19:30:31.076Z,-4949.91
2023-04-16T19:32:57.852Z,-5461.50
2023-04-16T19:35:24.429Z,-5717.25
2023-04-16T19:37:51.135Z,-6228.72
2023-04-16T19:40:17.674Z,-6484.41
2023-04-16T19:42:45.460Z,-6740.13
2023-04-16T19:45:12.047Z,-7251.44
2023-04-16T19:47:38.619Z,-7507.09
2023-04-16T19:50:05.843Z,-7507.09
2023-04-16T19:52:37.308Z,-7762.72
2023-04-16T19:55:04.465Z,-8018.31
2023-04-16T19:57:30.929Z,-8273.91
2023-04-16T19:59:57.433Z,-8529.47
2023-04-16T20:02:24.031Z,-9040.56
2023-04-16T20:04:50.738Z,-9296.09
2023-04-16T20:07:17.514Z,-9551.59
2023-04-16T20:09:44.062Z,-9551.59
2023-04-16T20:12:10.800Z,-9551.59
2023-04-16T20:14:37.207Z,-9551.59
2023-04-16T20:17:03.824Z,-9807.06
2023-04-16T20:19:33.729Z,-10062.56
2023-04-16T20:22:00.147Z,-10062.56
2023-04-16T20:24:26.580Z,-9807.06
2023-04-16T20:26:52.967Z,-9807.06
2023-04-16T20:29:19.439Z,-9551.59
2023-04-16T20:31:46.169Z,-9551.59
2023-04-16T20:34:12.839Z,-9296.09
2023-04-16T20:36:39.226Z,-9296.09
2023-04-16T20:39:07.266Z,-9296.09
2023-04-16T20:41:33.974Z,-8785.03
2023-04-16T20:44:05.223Z,-8529.47
2023-04-16T20:46:34.093Z,-8273.91
2023-04-16T20:49:03.234Z,-8018.31
2023-04-16T20:51:29.760Z,-8018.31
2023-04-16T20:53:56.316Z,-8273.91
2023-04-16T20:56:22.766Z,-8273.91
2023-04-16T20:58:49.160Z,-8273.91
2023-04-16T21:01:16.284Z,-8273.91
2023-04-16T21:03:42.939Z,-8018.31
2023-04-16T21:06:09.552Z,-7507.09
2023-04-16T21:08:36.153Z,-6995.78
2023-04-16T21:11:02.585Z,-6740.13
2023-04-16T21:13:29.002Z,-6740.13
2023-04-16T21:15:55.465Z,-6995.78
2023-04-16T21:18:21.941Z,-6740.13
2023-04-16T21:20:48.318Z,-6740.13
2023-04-16T21:23:14.721Z,-6484.41
2023-04-16T21:25:41.113Z,-6228.72
2023-04-16T21:28:07.654Z,-6228.72
2023-04-16T21:30:34.120Z,-5973.00
2023-04-16T21:33:00.721Z,-6228.72
2023-04-16T21:35:27.322Z,-5973.00
2023-04-16T21:37:53.716Z,-5973.00
2023-04-16T21:40:20.290Z,-5973.00
2023-04-16T21:42:46.766Z,-5973.00
2023-04-16T21:45:14.517Z,-6228.72
2023-04-16T21:47:41.089Z,-6228.72
2023-04-16T21:50:08.203Z,-6228.72
2023-04-16T21:52:40.109Z,-5717.25
2023-04-16T21:55:09.148Z,-5717.25
2023-04-16T21:57:35.575Z,-5717.25
2023-04-16T22:00:02.396Z,-5461.50
2023-04-16T22:02:28.997Z,-5461.50
2023-04-16T22:04:55.654Z,-5717.25
2023-04-16T22:07:22.095Z,-5973.00
2023-04-16T22:09:48.494Z,-6228.72
2023-04-16T22:12:15.010Z,-5973.00
2023-04-16T22:14:49.192Z,-5717.25
2023-04-16T22:17:27.542Z,-5717.25
2023-04-16T22:19:54.492Z,-5717.25
2023-04-16T22:22:21.916Z,-5973.00
2023-04-16T22:24:48.596Z,-5717.25
2023-04-16T22:27:15.027Z,-5461.50
2023-04-16T22:29:41.556Z,-5205.72
2023-04-16T22:32:08.247Z,-5205.72
2023-04-16T22:34:34.767Z,-5205.72
2023-04-16T22:37:02.891Z,-5205.72
2023-04-16T22:39:30.088Z,-5205.72
2023-04-16T22:41:56.714Z,-5717.25
2023-04-16T22:44:23.154Z,-5717.25
2023-04-16T22:46:49.551Z,-5717.25
2023-04-16T22:49:15.955Z,-5973.00
2023-04-16T22:51:42.681Z,-5717.25
2023-04-16T22:54:13.675Z,-5461.50
2023-04-16T22:56:40.752Z,-5461.50
2023-04-16T22:59:07.228Z,-5205.72
2023-04-16T23:01:34.553Z,-5205.72
2023-04-16T23:04:00.971Z,-5205.72
2023-04-16T23:06:27.820Z,-5461.50
2023-04-16T23:08:54.272Z,-5717.25
2023-04-16T23:11:20.882Z,-5717.25
2023-04-16T23:13:47.313Z,-5461.50
2023-04-16T23:16:13.838Z,-5205.72
2023-04-16T23:18:40.283Z,-5205.72
2023-04-16T23:21:06.686Z,-5461.50
2023-04-16T23:23:33.319Z,-5461.50
2023-04-16T23:26:00.894Z,-5717.25
2023-04-16T23:28:27.509Z,-5973.00
2023-04-16T23:30:53.976Z,-6484.41
2023-04-16T23:33:20.776Z,-6484.41
2023-04-16T23:35:47.679Z,-6740.13
2023-04-16T23:38:14.160Z,-6740.13
2023-04-16T23:40:40.650Z,-6740.13
2023-04-16T23:43:07.041Z,-6995.78
2023-04-16T23:45:33.547Z,-6995.78
2023-04-16T23:48:00.073Z,-6484.41
2023-04-16T23:50:26.537Z,-6995.78
2023-04-16T23:52:52.956Z,-6740.13
2023-04-16T23:55:19.479Z,-6484.41
2023-04-16T23:57:46.285Z,-6740.13
